createdAt,value
2023-11-17T00:00:59.706Z,98.88
2023-11-17T00:01:59.724Z,98.83
2023-11-17T00:02:59.863Z,98.83
2023-11-17T00:03:59.798Z,98.83
2023-11-17T00:04:59.689Z,98.83
2023-11-17T00:05:59.620Z,98.83
2023-11-17T00:06:59.657Z,98.83
2023-11-17T00:07:59.598Z,98.93
2023-11-17T00:08:59.589Z,98.93
2023-11-17T00:09:59.572Z,98.93
2023-11-17T00:10:59.561Z,98.93
2023-11-17T00:11:59.542Z,98.93
2023-11-17T00:12:59.565Z,98.93
2023-11-17T00:13:59.526Z,98.93
2023-11-17T00:14:59.507Z,98.93
2023-11-17T00:15:59.561Z,98.93
2023-11-17T00:16:59.560Z,98.93
2023-11-17T00:17:59.507Z,98.93
2023-11-17T00:18:59.549Z,98.93
2023-11-17T00:19:59.448Z,98.93
2023-11-17T00:20:59.425Z,98.93
2023-11-17T00:21:59.436Z,98.93
2023-11-17T00:22:59.393Z,98.93
2023-11-17T00:23:59.398Z,98.93
2023-11-17T00:24:59.416Z,98.93
2023-11-17T00:25:59.362Z,98.93
2023-11-17T00:26:59.348Z,98.93
2023-11-17T00:27:59.388Z,98.93
2023-11-17T00:28:59.317Z,98.93
2023-11-17T00:29:59.308Z,98.93
2023-11-17T00:30:59.308Z,98.93
2023-11-17T00:31:59.277Z,98.93
2023-11-17T00:32:59.298Z,98.93
2023-11-17T00:33:59.427Z,99.04
2023-11-17T00:34:59.368Z,98.93
2023-11-17T00:35:59.219Z,98.93
2023-11-17T00:36:59.251Z,98.93
2023-11-17T00:37:59.194Z,98.93
2023-11-17T00:38:59.185Z,98.93
2023-11-17T00:39:59.211Z,98.93
2023-11-17T00:40:59.163Z,98.93
2023-11-17T00:41:59.144Z,98.93
2023-11-17T00:42:59.176Z,99.04
2023-11-17T00:43:59.189Z,98.93
2023-11-17T00:44:59.155Z,98.93
2023-11-17T00:45:59.181Z,98.93
2023-11-17T00:46:59.385Z,98.93
2023-11-17T00:47:59.132Z,99.04
2023-11-17T00:48:59.100Z,98.93
2023-11-17T00:49:59.049Z,99.04
2023-11-17T00:50:59.029Z,98.93
2023-11-17T00:51:59.086Z,99.04
2023-11-17T00:52:59.003Z,98.93
2023-11-17T00:53:58.995Z,98.93
2023-11-17T00:54:59.014Z,98.93
2023-11-17T00:55:58.962Z,98.93
2023-11-17T00:56:58.952Z,98.93
2023-11-17T00:57:59.014Z,98.93
2023-11-17T00:58:58.939Z,98.93
2023-11-17T00:59:58.923Z,99.08
2023-11-17T01:00:59.014Z,98.97
2023-11-17T01:01:58.902Z,98.93
2023-11-17T01:02:58.975Z,98.93
2023-11-17T01:03:58.917Z,98.93
2023-11-17T01:04:58.846Z,99.04
2023-11-17T01:05:58.831Z,99.04
2023-11-17T01:06:58.833Z,98.93
2023-11-17T01:07:58.807Z,98.93
2023-11-17T01:08:58.822Z,98.93
2023-11-17T01:09:58.834Z,98.97
2023-11-17T01:10:58.768Z,99.08
2023-11-17T01:11:58.756Z,98.93
2023-11-17T01:12:58.783Z,98.97
2023-11-17T01:13:58.729Z,98.97
2023-11-17T01:14:58.718Z,98.97
2023-11-17T01:15:58.816Z,98.97
2023-11-17T01:16:58.712Z,98.97
2023-11-17T01:17:58.735Z,98.97
2023-11-17T01:18:58.684Z,98.97
2023-11-17T01:19:58.640Z,98.97
2023-11-17T01:20:58.641Z,98.93
2023-11-17T01:21:58.681Z,98.93
2023-11-17T01:22:58.610Z,98.93
2023-11-17T01:23:58.602Z,98.93
2023-11-17T01:24:58.596Z,99.04
2023-11-17T01:25:58.568Z,98.97
2023-11-17T01:26:58.576Z,98.97
2023-11-17T01:27:58.599Z,98.93
2023-11-17T01:28:58.545Z,98.93
2023-11-17T01:29:58.516Z,98.97
2023-11-17T01:30:58.572Z,98.97
2023-11-17T01:31:58.497Z,98.97
2023-11-17T01:32:58.576Z,98.93
2023-11-17T01:33:58.550Z,99.04
2023-11-17T01:34:58.482Z,98.97
2023-11-17T01:35:58.438Z,98.93
2023-11-17T01:36:58.479Z,99.04
2023-11-17T01:37:58.423Z,99.04
2023-11-17T01:38:58.403Z,99.08
2023-11-17T01:39:58.405Z,99.08
2023-11-17T01:40:58.376Z,99.04
2023-11-17T01:41:58.366Z,99.04
2023-11-17T01:42:58.395Z,99.04
2023-11-17T01:43:58.342Z,99.04
2023-11-17T01:44:58.320Z,99.04
2023-11-17T01:45:58.402Z,99.04
2023-11-17T01:46:58.358Z,99.04
2023-11-17T01:47:58.343Z,99.04
2023-11-17T01:48:58.319Z,99.04
2023-11-17T01:49:58.263Z,99.04
2023-11-17T01:50:58.243Z,99.04
2023-11-17T01:51:58.278Z,99.08
2023-11-17T01:52:58.219Z,99.08
2023-11-17T01:53:58.202Z,99.08
2023-11-17T01:54:58.232Z,99.08
2023-11-17T01:55:58.176Z,99.04
2023-11-17T01:56:58.181Z,99.08
2023-11-17T01:57:58.203Z,99.04
2023-11-17T01:58:58.142Z,99.04
2023-11-17T01:59:58.147Z,99.04
2023-11-17T02:00:58.136Z,99.04
2023-11-17T02:01:58.162Z,99.04
2023-11-17T02:02:58.195Z,99.04
2023-11-17T02:03:58.170Z,99.04
2023-11-17T02:04:58.078Z,99.04
2023-11-17T02:05:58.052Z,99.14
2023-11-17T02:06:58.066Z,99.14
2023-11-17T02:07:58.026Z,99.04
2023-11-17T02:08:58.044Z,99.14
2023-11-17T02:09:58.041Z,99.14
2023-11-17T02:10:58.016Z,99.14
2023-11-17T02:11:57.973Z,99.14
2023-11-17T02:12:57.997Z,99.14
2023-11-17T02:13:58.016Z,99.18
2023-11-17T02:14:57.963Z,99.18
2023-11-17T02:15:57.944Z,99.14
2023-11-17T02:16:57.975Z,99.14
2023-11-17T02:17:57.954Z,99.14
2023-11-17T02:18:57.954Z,99.14
2023-11-17T02:19:57.867Z,99.14
2023-11-17T02:20:57.855Z,99.14
2023-11-17T02:21:57.930Z,99.14
2023-11-17T02:22:57.839Z,99.14
2023-11-17T02:23:57.818Z,99.14
2023-11-17T02:24:57.875Z,99.14
2023-11-17T02:25:57.792Z,99.14
2023-11-17T02:26:57.782Z,99.14
2023-11-17T02:27:57.810Z,99.24
2023-11-17T02:28:57.778Z,99.14
2023-11-17T02:29:57.757Z,99.24
2023-11-17T02:30:58.061Z,99.24
2023-11-17T02:31:57.772Z,99.24
2023-11-17T02:32:57.719Z,99.24
2023-11-17T02:33:57.706Z,99.24
2023-11-17T02:34:57.696Z,99.24
2023-11-17T02:35:57.657Z,99.24
2023-11-17T02:36:57.666Z,99.24
2023-11-17T02:37:57.631Z,99.24
2023-11-17T02:38:57.723Z,99.24
2023-11-17T02:39:57.632Z,99.24
2023-11-17T02:40:57.686Z,99.24
2023-11-17T02:41:57.582Z,99.24
2023-11-17T02:42:57.583Z,99.24
2023-11-17T02:43:57.555Z,99.24
2023-11-17T02:44:57.556Z,99.24
2023-11-17T02:45:57.561Z,99.24
2023-11-17T02:46:57.578Z,99.24
2023-11-17T02:47:57.859Z,99.24
2023-11-17T02:48:57.534Z,99.24
2023-11-17T02:49:57.478Z,99.24
2023-11-17T02:50:57.466Z,99.24
2023-11-17T02:51:57.546Z,99.24
2023-11-17T02:52:57.529Z,99.24
2023-11-17T02:53:57.424Z,99.24
2023-11-17T02:54:57.479Z,99.34
2023-11-17T02:55:57.397Z,99.24
2023-11-17T02:56:57.393Z,99.34
2023-11-17T02:57:57.391Z,99.24
2023-11-17T02:58:57.379Z,99.34
2023-11-17T02:59:57.345Z,99.24
2023-11-17T03:00:57.361Z,99.24
2023-11-17T03:01:57.355Z,99.34
2023-11-17T03:02:57.381Z,99.24
2023-11-17T03:03:57.356Z,99.24
2023-11-17T03:04:57.298Z,99.24
2023-11-17T03:05:57.271Z,99.24
2023-11-17T03:06:57.263Z,99.24
2023-11-17T03:07:57.237Z,99.24
2023-11-17T03:08:57.231Z,99.24
2023-11-17T03:09:57.450Z,99.24
2023-11-17T03:10:57.204Z,99.24
2023-11-17T03:11:57.185Z,99.24
2023-11-17T03:12:57.223Z,99.24
2023-11-17T03:13:57.178Z,99.24
2023-11-17T03:14:57.165Z,99.24
2023-11-17T03:15:57.239Z,99.24
2023-11-17T03:16:57.203Z,99.24
2023-11-17T03:17:57.196Z,99.24
2023-11-17T03:18:57.176Z,99.24
2023-11-17T03:19:57.104Z,99.24
2023-11-17T03:20:57.098Z,99.24
2023-11-17T03:21:57.118Z,99.24
2023-11-17T03:22:57.069Z,99.24
2023-11-17T03:23:57.057Z,99.24
2023-11-17T03:24:57.113Z,99.24
2023-11-17T03:25:57.032Z,99.24
2023-11-17T03:26:57.020Z,99.24
2023-11-17T03:27:57.069Z,99.24
2023-11-17T03:28:57.003Z,99.24
2023-11-17T03:29:56.974Z,99.24
2023-11-17T03:30:57.085Z,99.34
2023-11-17T03:31:57.054Z,99.24
2023-11-17T03:32:57.029Z,99.24
2023-11-17T03:33:56.944Z,99.24
2023-11-17T03:34:56.915Z,99.24
2023-11-17T03:35:56.915Z,99.24
2023-11-17T03:36:56.931Z,99.24
2023-11-17T03:37:56.882Z,99.24
2023-11-17T03:38:56.860Z,99.24
2023-11-17T03:39:56.865Z,99.24
2023-11-17T03:40:56.850Z,99.24
2023-11-17T03:41:56.875Z,99.24
2023-11-17T03:42:56.895Z,99.24
2023-11-17T03:43:56.798Z,99.24
2023-11-17T03:44:56.784Z,99.19
2023-11-17T03:45:56.841Z,99.24
2023-11-17T03:46:56.961Z,99.24
2023-11-17T03:47:56.773Z,99.24
2023-11-17T03:48:56.764Z,99.34
2023-11-17T03:49:56.711Z,99.24
2023-11-17T04:03:32.383Z,99.24
2023-11-17T04:04:32.366Z,99.24
2023-11-17T04:05:32.312Z,99.24
2023-11-17T04:06:32.298Z,99.24
2023-11-17T04:07:32.335Z,99.24
2023-11-17T04:08:32.267Z,99.24
2023-11-17T04:09:32.269Z,99.24
2023-11-17T04:10:32.267Z,99.24
2023-11-17T04:11:32.240Z,99.24
2023-11-17T04:12:32.225Z,99.24
2023-11-17T04:13:32.380Z,99.19
2023-11-17T04:14:32.200Z,99.24
2023-11-17T04:15:32.209Z,99.24
2023-11-17T04:16:32.284Z,99.24
2023-11-17T04:17:32.346Z,99.24
2023-11-17T04:18:32.222Z,99.24
2023-11-17T04:19:32.234Z,99.24
2023-11-17T04:20:32.199Z,99.19
2023-11-17T04:21:32.185Z,99.19
2023-11-17T04:22:32.269Z,99.19
2023-11-17T04:23:32.077Z,99.19
2023-11-17T04:24:32.100Z,99.19
2023-11-17T04:25:32.086Z,99.19
2023-11-17T04:26:32.038Z,99.19
2023-11-17T04:27:32.042Z,99.19
2023-11-17T04:28:32.052Z,99.19
2023-11-17T04:29:31.999Z,99.19
2023-11-17T04:30:31.990Z,99.19
2023-11-17T04:31:31.997Z,99.19
2023-11-17T04:32:32.045Z,99.09
2023-11-17T04:33:32.007Z,99.19
2023-11-17T04:34:31.985Z,99.14
2023-11-17T04:35:31.925Z,99.19
2023-11-17T04:36:31.919Z,99.09
2023-11-17T04:37:31.989Z,99.19
2023-11-17T04:38:31.902Z,99.19
2023-11-17T04:39:31.864Z,99.19
2023-11-17T04:40:31.895Z,99.19
2023-11-17T04:41:31.836Z,99.19
2023-11-17T04:42:31.836Z,99.19
2023-11-17T04:43:31.819Z,99.19
2023-11-17T04:44:31.896Z,99.19
2023-11-17T04:45:31.808Z,99.09
2023-11-17T04:46:31.872Z,99.19
2023-11-17T04:47:31.782Z,99.09
2023-11-17T04:48:31.783Z,99.19
2023-11-17T04:49:31.805Z,99.09
2023-11-17T04:50:31.731Z,99.09
2023-11-17T04:51:31.729Z,99.09
2023-11-17T04:52:31.892Z,99.19
2023-11-17T04:53:31.694Z,99.09
2023-11-17T04:54:31.684Z,99.09
2023-11-17T04:55:31.721Z,99.09
2023-11-17T04:56:31.694Z,99.09
2023-11-17T04:57:31.637Z,99.09
2023-11-17T04:58:31.672Z,99.09
2023-11-17T04:59:31.609Z,99.09
2023-11-17T05:00:31.613Z,99.09
2023-11-17T05:01:31.685Z,99.09
2023-11-17T05:02:31.604Z,99.09
2023-11-17T05:03:31.662Z,98.99
2023-11-17T05:04:31.612Z,99.09
2023-11-17T05:05:31.550Z,98.99
2023-11-17T05:06:31.517Z,98.99
2023-11-17T05:07:31.567Z,99.09
2023-11-17T05:08:31.501Z,98.99
2023-11-17T05:09:31.505Z,99.09
2023-11-17T05:10:31.505Z,99.09
2023-11-17T05:11:31.445Z,98.99
2023-11-17T05:12:31.442Z,99.09
2023-11-17T05:13:31.486Z,99.09
2023-11-17T05:14:31.421Z,99.14
2023-11-17T05:15:33.560Z,99.14
2023-11-17T05:16:31.472Z,99.14
2023-11-17T05:17:31.422Z,99.14
2023-11-17T05:18:31.379Z,99.09
2023-11-17T05:19:31.412Z,99.09
2023-11-17T05:20:31.356Z,99.14
2023-11-17T05:21:31.340Z,99.09
2023-11-17T05:22:31.339Z,99.09
2023-11-17T05:23:31.306Z,99.09
2023-11-17T05:24:31.297Z,99.09
2023-11-17T05:25:31.348Z,99.09
2023-11-17T05:26:31.280Z,99.09
2023-11-17T05:27:31.235Z,99.09
2023-11-17T05:28:32.309Z,99.09
2023-11-17T05:29:31.248Z,99.09
2023-11-17T05:30:31.241Z,99.09
2023-11-17T05:31:31.235Z,99.09
2023-11-17T05:32:31.196Z,99.09
2023-11-17T05:33:31.169Z,99.09
2023-11-17T05:34:31.216Z,98.99
2023-11-17T05:35:31.142Z,98.99
2023-11-17T05:36:31.167Z,99.09
2023-11-17T05:37:31.154Z,99.09
2023-11-17T05:38:31.114Z,99.09
2023-11-17T05:39:31.092Z,99.09
2023-11-17T05:40:31.105Z,99.09
2023-11-17T05:41:31.095Z,99.09
2023-11-17T05:42:31.045Z,99.09
2023-11-17T05:43:31.110Z,99.09
2023-11-17T05:44:31.027Z,98.99
2023-11-17T05:45:31.029Z,98.99
2023-11-17T05:46:31.076Z,99.09
2023-11-17T05:47:31.088Z,98.99
2023-11-17T05:48:30.986Z,98.99
2023-11-17T05:49:31.030Z,99.09
2023-11-17T05:50:31.119Z,98.99
2023-11-17T05:51:30.946Z,98.99
2023-11-17T05:52:30.981Z,99.09
2023-11-17T05:53:30.919Z,98.99
2023-11-17T05:54:30.905Z,98.99
2023-11-17T05:55:30.909Z,98.99
2023-11-17T05:56:30.881Z,98.99
2023-11-17T05:57:30.875Z,98.99
2023-11-17T05:58:30.858Z,98.99
2023-11-17T05:59:30.824Z,98.99
2023-11-17T06:00:30.821Z,98.99
2023-11-17T06:01:30.860Z,98.99
2023-11-17T06:02:30.857Z,98.99
2023-11-17T06:03:30.889Z,98.99
2023-11-17T06:04:30.828Z,98.99
2023-11-17T06:05:30.780Z,98.88
2023-11-17T06:06:30.745Z,98.99
2023-11-17T06:07:30.775Z,98.99
2023-11-17T06:08:30.705Z,98.99
2023-11-17T06:09:30.698Z,98.88
2023-11-17T06:10:30.730Z,98.88
2023-11-17T06:11:30.688Z,98.88
2023-11-17T06:12:30.663Z,98.88
2023-11-17T06:13:30.680Z,98.88
2023-11-17T06:14:30.651Z,98.88
2023-11-17T06:15:30.638Z,98.88
2023-11-17T06:16:30.651Z,98.88
2023-11-17T06:17:30.656Z,98.88
2023-11-17T06:18:30.589Z,98.88
2023-11-17T06:19:30.598Z,98.88
2023-11-17T06:20:30.573Z,98.88
2023-11-17T06:21:30.542Z,98.88
2023-11-17T06:22:30.550Z,98.88
2023-11-17T06:23:30.522Z,98.88
2023-11-17T06:24:30.533Z,98.88
2023-11-17T06:25:30.545Z,98.88
2023-11-17T06:26:30.499Z,98.88
2023-11-17T06:27:30.471Z,98.88
2023-11-17T06:28:30.524Z,98.88
2023-11-17T06:29:30.452Z,98.99
2023-11-17T06:30:30.440Z,98.88
2023-11-17T06:31:30.622Z,98.88
2023-11-17T06:32:30.476Z,98.99
2023-11-17T06:33:30.415Z,98.88
2023-11-17T06:34:30.421Z,98.93
2023-11-17T06:35:30.374Z,98.93
2023-11-17T06:36:30.353Z,98.93
2023-11-17T06:37:30.388Z,98.93
2023-11-17T06:38:30.397Z,98.93
2023-11-17T06:39:30.328Z,98.93
2023-11-17T06:40:30.380Z,98.83
2023-11-17T06:41:30.293Z,98.83
2023-11-17T06:42:30.340Z,98.93
2023-11-17T06:43:30.382Z,98.83
2023-11-17T06:44:30.248Z,98.83
2023-11-17T06:45:30.273Z,98.83
2023-11-17T06:46:30.310Z,98.83
2023-11-17T06:47:30.240Z,98.83
2023-11-17T06:48:30.202Z,98.83
2023-11-17T06:49:30.217Z,98.83
2023-11-17T06:50:30.186Z,98.83
2023-11-17T06:51:30.225Z,98.72
2023-11-17T06:52:30.182Z,98.62
2023-11-17T06:53:30.150Z,98.62
2023-11-17T06:54:30.136Z,98.52
2023-11-17T06:55:30.153Z,98.41
2023-11-17T06:56:30.107Z,98.31
2023-11-17T06:57:30.108Z,98.21
2023-11-17T06:58:30.139Z,98.10
2023-11-17T06:59:30.073Z,98.00
2023-11-17T07:00:30.047Z,97.89
2023-11-17T07:01:30.085Z,97.79
2023-11-17T07:02:30.293Z,97.49
2023-11-17T07:03:30.057Z,97.28
2023-11-17T07:04:30.015Z,97.28
2023-11-17T07:05:30.013Z,97.17
2023-11-17T07:06:29.960Z,97.07
2023-11-17T07:07:30.011Z,97.07
2023-11-17T07:08:29.951Z,97.07
2023-11-17T07:09:29.934Z,97.17
2023-11-17T07:10:29.964Z,97.17
2023-11-17T07:11:29.916Z,97.28
2023-11-17T07:12:29.928Z,97.07
2023-11-17T07:13:29.907Z,96.86
2023-11-17T07:14:29.871Z,96.91
2023-11-17T07:15:29.889Z,96.70
2023-11-17T07:16:41.072Z,96.80
2023-11-17T07:17:30.885Z,96.70
2023-11-17T07:18:29.864Z,96.70
2023-11-17T07:19:29.818Z,96.80
2023-11-17T07:20:29.808Z,96.70
2023-11-17T07:21:29.936Z,96.80
2023-11-17T07:22:29.775Z,96.70
2023-11-17T07:23:29.752Z,96.70
2023-11-17T07:24:29.755Z,96.80
2023-11-17T07:25:29.808Z,96.80
2023-11-17T07:26:29.723Z,96.91
2023-11-17T07:27:29.743Z,96.91
2023-11-17T07:28:29.714Z,96.91
2023-11-17T07:29:29.680Z,97.01
2023-11-17T07:30:29.708Z,97.01
2023-11-17T07:31:29.716Z,97.01
2023-11-17T07:32:29.663Z,97.01
2023-11-17T07:33:29.643Z,97.01
2023-11-17T07:34:29.652Z,97.01
2023-11-17T07:35:29.603Z,97.01
2023-11-17T07:36:29.583Z,97.01
2023-11-17T07:37:29.630Z,97.11
2023-11-17T07:38:29.611Z,97.11
2023-11-17T07:39:29.549Z,96.80
2023-11-17T07:40:31.186Z,96.70
2023-11-17T07:41:29.530Z,96.70
2023-11-17T07:42:29.514Z,96.49
2023-11-17T07:43:29.540Z,96.59
2023-11-17T07:44:29.499Z,96.70
2023-11-17T07:45:29.505Z,96.80
2023-11-17T07:46:29.541Z,96.80
2023-11-17T07:47:29.570Z,96.91
2023-11-17T07:48:29.432Z,96.70
2023-11-17T07:49:29.486Z,96.70
2023-11-17T07:50:29.430Z,96.70
2023-11-17T07:51:29.407Z,96.70
2023-11-17T07:52:29.460Z,96.70
2023-11-17T07:53:29.377Z,96.70
2023-11-17T07:54:29.368Z,96.80
2023-11-17T07:55:29.385Z,96.59
2023-11-17T07:56:29.323Z,96.49
2023-11-17T07:57:29.321Z,96.19
2023-11-17T07:58:29.340Z,96.19
2023-11-17T07:59:29.305Z,96.08
2023-11-17T08:00:29.658Z,95.98
2023-11-17T08:01:29.305Z,96.08
2023-11-17T08:02:29.266Z,96.19
2023-11-17T08:03:29.359Z,96.19
2023-11-17T08:04:29.339Z,96.29
2023-11-17T08:05:29.266Z,96.08
2023-11-17T08:06:29.201Z,95.87
2023-11-17T08:07:29.268Z,95.77
2023-11-17T08:08:29.216Z,95.56
2023-11-17T08:09:29.196Z,95.67
2023-11-17T08:10:29.169Z,95.67
2023-11-17T08:11:29.137Z,95.87
2023-11-17T08:12:29.140Z,95.87
2023-11-17T08:13:29.168Z,95.87
2023-11-17T08:14:29.099Z,95.67
2023-11-17T08:15:29.104Z,95.56
2023-11-17T08:16:29.226Z,95.56
2023-11-17T08:17:29.102Z,95.56
2023-11-17T08:18:29.044Z,95.56
2023-11-17T08:19:29.104Z,95.46
2023-11-17T08:20:29.020Z,95.36
2023-11-17T08:21:29.025Z,95.25
2023-11-17T08:22:29.073Z,95.15
2023-11-17T08:23:28.994Z,95.15
2023-11-17T08:24:28.981Z,95.15
2023-11-17T08:25:28.988Z,95.04
2023-11-17T08:26:28.933Z,94.94
2023-11-17T08:27:28.923Z,94.94
2023-11-17T08:28:28.940Z,95.25
2023-11-17T08:29:28.919Z,95.25
2023-11-17T08:30:35.786Z,95.15
2023-11-17T08:31:29.976Z,95.25
2023-11-17T08:32:28.925Z,95.21
2023-11-17T08:33:28.857Z,95.21
2023-11-17T08:34:28.910Z,95.31
2023-11-17T08:35:28.877Z,95.42
2023-11-17T08:36:28.813Z,95.31
2023-11-17T08:37:28.946Z,94.90
2023-11-17T08:38:28.814Z,94.69
2023-11-17T08:39:29.193Z,94.59
2023-11-17T08:40:28.786Z,94.59
2023-11-17T08:41:28.770Z,94.54
2023-11-17T08:42:28.744Z,94.50
2023-11-17T08:43:28.787Z,94.35
2023-11-17T08:44:29.112Z,94.10
2023-11-17T08:45:28.733Z,92.76
2023-11-17T08:46:28.743Z,91.94
2023-11-17T08:47:28.746Z,91.63
2023-11-17T08:48:28.686Z,91.28
2023-11-17T08:49:28.749Z,90.86
2023-11-17T08:50:28.673Z,90.86
2023-11-17T08:51:28.635Z,90.55
2023-11-17T08:52:28.655Z,90.66
2023-11-17T08:53:28.608Z,90.25
2023-11-17T08:54:28.596Z,89.94
2023-11-17T08:55:28.691Z,89.36
2023-11-17T08:56:28.584Z,89.36
2023-11-17T08:57:28.551Z,89.77
2023-11-17T08:58:28.586Z,89.98
2023-11-17T08:59:28.532Z,89.98
2023-11-17T09:00:28.519Z,89.56
2023-11-17T09:01:28.585Z,89.67
2023-11-17T09:02:28.562Z,90.08
2023-11-17T09:03:28.541Z,90.70
2023-11-17T09:04:28.490Z,90.70
2023-11-17T09:05:28.450Z,90.49
2023-11-17T09:06:28.434Z,89.73
2023-11-17T09:07:30.758Z,89.62
2023-11-17T09:08:28.398Z,88.84
2023-11-17T09:09:30.898Z,88.95
2023-11-17T09:10:28.432Z,89.56
2023-11-17T09:11:28.375Z,89.77
2023-11-17T09:12:28.362Z,89.52
2023-11-17T09:13:28.355Z,88.59
2023-11-17T09:14:32.265Z,88.24
2023-11-17T09:15:28.353Z,88.56
2023-11-17T09:16:36.944Z,88.56
2023-11-17T09:17:29.378Z,88.24
2023-11-17T09:18:28.298Z,87.32
2023-11-17T09:19:28.282Z,86.97
2023-11-17T09:20:28.267Z,87.11
2023-11-17T09:21:28.269Z,87.38
2023-11-17T09:22:28.255Z,87.90
2023-11-17T09:23:28.216Z,87.38
2023-11-17T09:24:28.226Z,86.35
2023-11-17T09:25:28.608Z,86.04
2023-11-17T09:26:28.204Z,86.04
2023-11-17T09:27:28.163Z,84.70
2023-11-17T09:28:28.225Z,83.91
2023-11-17T09:29:28.141Z,84.01
2023-11-17T09:30:28.135Z,84.99
2023-11-17T09:31:28.118Z,85.30
2023-11-17T09:32:28.174Z,86.02
2023-11-17T09:33:28.327Z,85.91
2023-11-17T09:34:28.146Z,85.30
2023-11-17T09:35:28.421Z,85.44
2023-11-17T09:36:28.075Z,85.75
2023-11-17T09:37:28.142Z,85.75
2023-11-17T09:38:35.262Z,86.12
2023-11-17T09:39:29.029Z,86.53
2023-11-17T09:40:28.003Z,85.71
2023-11-17T09:41:27.979Z,84.67
2023-11-17T09:42:27.989Z,84.94
2023-11-17T09:43:28.012Z,84.29
2023-11-17T09:44:27.962Z,83.94
2023-11-17T09:45:28.100Z,83.14
2023-11-17T09:46:27.975Z,81.15
2023-11-17T09:47:28.001Z,80.56
2023-11-17T10:03:30.693Z,76.93
2023-11-17T10:04:30.554Z,75.63
2023-11-17T10:05:30.516Z,76.04
2023-11-17T10:06:30.498Z,76.45
2023-11-17T10:07:30.569Z,77.13
2023-11-17T10:08:30.487Z,76.82
2023-11-17T10:09:30.653Z,75.90
2023-11-17T10:10:30.517Z,75.29
2023-11-17T10:11:30.452Z,75.80
2023-11-17T10:12:30.436Z,77.34
2023-11-17T10:13:30.461Z,76.35
2023-11-17T10:14:30.418Z,76.45
2023-11-17T10:15:30.425Z,77.99
2023-11-17T10:16:30.459Z,77.99
2023-11-17T10:17:30.457Z,77.17
2023-11-17T10:18:30.464Z,76.90
2023-11-17T10:19:30.386Z,78.03
2023-11-17T10:20:30.352Z,77.00
2023-11-17T10:21:30.345Z,77.17
2023-11-17T10:22:30.322Z,77.83
2023-11-17T10:23:30.314Z,79.00
2023-11-17T10:24:30.299Z,79.61
2023-11-17T10:25:30.356Z,79.96
2023-11-17T10:26:30.283Z,80.68
2023-11-17T10:27:30.265Z,81.20
2023-11-17T10:28:30.298Z,81.03
2023-11-17T10:29:30.237Z,81.44
2023-11-17T10:30:30.246Z,82.16
2023-11-17T10:31:30.314Z,81.99
2023-11-17T10:32:42.682Z,82.30
2023-11-17T10:33:31.410Z,82.61
2023-11-17T10:34:30.261Z,82.78
2023-11-17T10:35:30.148Z,82.57
2023-11-17T10:36:30.150Z,82.43
2023-11-17T10:37:30.173Z,81.30
2023-11-17T10:38:30.119Z,80.79
2023-11-17T10:39:30.095Z,80.89
2023-11-17T10:40:30.133Z,81.71
2023-11-17T10:41:30.077Z,81.30
2023-11-17T10:42:30.059Z,80.89
2023-11-17T10:43:30.093Z,80.99
2023-11-17T10:44:30.024Z,81.30
2023-11-17T10:45:30.031Z,81.61
2023-11-17T10:46:30.110Z,81.40
2023-11-17T10:47:30.113Z,81.81
2023-11-17T10:48:29.974Z,82.12
2023-11-17T10:49:30.471Z,82.74
2023-11-17T10:50:29.954Z,81.71
2023-11-17T10:51:29.953Z,81.71
2023-11-17T10:52:29.995Z,82.40
2023-11-17T10:53:29.970Z,81.88
2023-11-17T10:54:29.911Z,81.23
2023-11-17T10:55:29.968Z,81.12
2023-11-17T10:56:29.880Z,81.29
2023-11-17T10:57:29.875Z,80.67
2023-11-17T10:58:29.876Z,80.16
2023-11-17T10:59:30.227Z,80.05
2023-11-17T11:00:29.830Z,80.26
2023-11-17T11:01:29.856Z,80.02
2023-11-17T11:02:30.007Z,79.91
2023-11-17T11:03:29.895Z,80.22
2023-11-17T11:04:29.808Z,79.30
2023-11-17T11:05:29.753Z,79.75
2023-11-17T11:06:29.764Z,80.47
2023-11-17T11:07:29.780Z,80.47
2023-11-17T11:08:29.716Z,80.51
2023-11-17T11:09:29.775Z,80.61
2023-11-17T11:10:29.715Z,80.61
2023-11-17T11:11:29.685Z,80.88
2023-11-17T11:12:29.672Z,79.85
2023-11-17T11:13:30.176Z,79.91
2023-11-17T11:14:29.659Z,79.63
2023-11-17T11:15:29.629Z,77.55
2023-11-17T11:16:29.702Z,76.62
2023-11-17T11:17:29.691Z,76.65
2023-11-17T11:18:29.591Z,77.06
2023-11-17T11:19:38.649Z,77.41
2023-11-17T11:20:30.582Z,77.72
2023-11-17T11:21:29.564Z,77.72
2023-11-17T11:22:29.640Z,78.64
2023-11-17T11:23:29.539Z,78.54
2023-11-17T11:24:33.716Z,78.85
2023-11-17T11:25:30.528Z,79.05
2023-11-17T11:26:29.499Z,79.16
2023-11-17T11:27:29.492Z,78.85
2023-11-17T11:28:29.483Z,78.96
2023-11-17T11:29:29.461Z,79.26
2023-11-17T11:30:29.477Z,79.09
2023-11-17T11:31:29.521Z,79.88
2023-11-17T11:32:29.425Z,79.88
2023-11-17T11:33:29.388Z,78.71
2023-11-17T11:34:29.413Z,78.78
2023-11-17T11:35:29.378Z,78.09
2023-11-17T11:36:29.369Z,75.66
2023-11-17T11:37:29.398Z,73.95
2023-11-17T11:38:29.329Z,72.92
2023-11-17T11:39:29.324Z,72.07
2023-11-17T11:40:29.357Z,71.22
2023-11-17T11:41:29.303Z,70.06
2023-11-17T11:42:29.269Z,69.82
2023-11-17T11:43:29.462Z,68.87
2023-11-17T11:44:29.263Z,67.54
2023-11-17T11:45:29.258Z,68.30
2023-11-17T11:46:29.336Z,66.86
2023-11-17T11:47:29.307Z,66.02
2023-11-17T11:48:29.212Z,66.12
2023-11-17T11:49:29.290Z,66.36
2023-11-17T11:50:29.171Z,64.60
2023-11-17T11:51:29.166Z,63.76
2023-11-17T11:52:29.174Z,61.85
2023-11-17T11:53:29.148Z,62.23
2023-11-17T11:54:29.136Z,63.65
2023-11-17T11:55:29.123Z,61.72
2023-11-17T11:56:29.092Z,62.20
2023-11-17T11:57:29.951Z,60.75
2023-11-17T11:58:29.232Z,59.86
2023-11-17T11:59:29.068Z,60.77
2023-11-17T12:00:29.038Z,61.36
2023-11-17T12:01:29.053Z,60.14
2023-11-17T12:02:29.051Z,60.64
2023-11-17T12:03:29.087Z,59.50
2023-11-17T12:04:29.039Z,59.67
2023-11-17T12:05:29.037Z,58.33
2023-11-17T12:06:28.978Z,57.25
2023-11-17T12:07:28.996Z,56.52
2023-11-17T12:08:29.106Z,55.53
2023-11-17T12:09:28.932Z,56.29
2023-11-17T12:10:28.963Z,57.41
2023-11-17T12:11:28.906Z,57.15
2023-11-17T12:12:28.904Z,56.44
2023-11-17T12:13:28.935Z,57.38
2023-11-17T12:14:28.877Z,57.92
2023-11-17T12:15:28.859Z,58.80
2023-11-17T12:16:28.922Z,58.02
2023-11-17T12:17:28.877Z,57.92
2023-11-17T12:18:28.809Z,59.27
2023-11-17T12:19:28.842Z,59.16
2023-11-17T12:20:28.810Z,61.22
2023-11-17T12:21:28.774Z,59.01
2023-11-17T12:22:28.776Z,59.58
2023-11-17T12:23:29.457Z,59.94
2023-11-17T12:24:28.772Z,60.48
2023-11-17T12:25:28.786Z,62.04
2023-11-17T12:26:28.742Z,62.99
2023-11-17T12:27:28.709Z,64.01
2023-11-17T12:28:28.751Z,64.04
2023-11-17T12:29:28.690Z,64.75
2023-11-17T12:30:28.807Z,64.58
2023-11-17T12:31:28.706Z,65.22
2023-11-17T12:32:28.769Z,65.33
2023-11-17T12:33:28.715Z,65.30
2023-11-17T12:34:28.648Z,64.78
2023-11-17T12:35:28.980Z,65.60
2023-11-17T12:36:28.588Z,64.81
2023-11-17T12:37:28.580Z,65.22
2023-11-17T12:38:28.550Z,65.56
2023-11-17T12:39:28.583Z,66.51
2023-11-17T12:40:28.573Z,66.03
2023-11-17T12:41:29.982Z,67.49
2023-11-17T12:42:28.506Z,67.49
2023-11-17T12:43:28.522Z,68.32
2023-11-17T12:44:28.500Z,67.26
2023-11-17T12:45:28.547Z,67.13
2023-11-17T12:46:28.595Z,66.38
2023-11-17T12:47:32.269Z,66.38
2023-11-17T12:48:28.496Z,65.87
2023-11-17T12:49:28.439Z,65.87
2023-11-17T12:50:28.433Z,66.58
2023-11-17T12:51:28.432Z,66.28
2023-11-17T12:52:28.435Z,66.45
2023-11-17T12:53:35.849Z,66.04
2023-11-17T12:54:29.359Z,66.21
2023-11-17T12:55:28.374Z,67.10
2023-11-17T12:56:28.332Z,65.57
2023-11-17T12:57:28.319Z,65.26
2023-11-17T12:58:28.326Z,64.96
2023-11-17T12:59:28.608Z,65.37
2023-11-17T13:00:28.258Z,65.60
2023-11-17T13:01:28.359Z,65.43
2023-11-17T13:02:28.321Z,65.77
2023-11-17T13:03:28.302Z,66.10
2023-11-17T13:04:28.291Z,66.58
2023-11-17T13:05:28.561Z,66.89
2023-11-17T13:06:28.297Z,66.38
2023-11-17T13:07:28.240Z,66.72
2023-11-17T13:08:28.159Z,68.38
2023-11-17T13:09:28.185Z,68.83
2023-11-17T13:10:28.178Z,69.03
2023-11-17T13:11:28.684Z,69.34
2023-11-17T13:12:28.140Z,69.95
2023-11-17T13:13:28.173Z,69.47
2023-11-17T13:14:28.094Z,69.57
2023-11-17T13:15:28.481Z,70.29
2023-11-17T13:16:28.104Z,70.26
2023-11-17T13:17:28.796Z,70.67
2023-11-17T13:18:28.024Z,70.26
2023-11-17T13:19:28.045Z,70.47
2023-11-17T13:20:27.998Z,70.77